createdAt,value
2022-12-04T00:00:27.400Z,15.32
2022-12-04T00:02:54.336Z,15.23
2022-12-04T00:05:21.280Z,16.30
2022-12-04T00:07:48.522Z,15.45
2022-12-04T00:10:15.542Z,16.45
2022-12-04T00:12:42.360Z,15.98
2022-12-04T00:15:25.158Z,16.10
2022-12-04T00:17:52.798Z,14.38
2022-12-04T00:20:20.114Z,15.23
2022-12-04T00:22:47.031Z,16.60
2022-12-04T00:25:14.028Z,15.52
2022-12-04T00:27:43.831Z,13.32
2022-12-04T00:30:11.236Z,15.27
2022-12-04T00:32:38.007Z,15.32
2022-12-04T00:35:05.159Z,14.40
2022-12-04T00:37:33.440Z,14.63
2022-12-04T00:40:00.282Z,14.63
2022-12-04T00:42:27.081Z,15.60
2022-12-04T00:44:54.043Z,15.15
2022-12-04T00:47:20.916Z,13.43
2022-12-04T00:49:47.753Z,14.93
2022-12-04T00:52:14.553Z,16.25
2022-12-04T00:54:41.448Z,14.73
2022-12-04T00:57:08.285Z,14.43
2022-12-04T00:59:35.113Z,14.90
2022-12-04T01:02:01.868Z,15.98
2022-12-04T01:04:28.726Z,15.05
2022-12-04T01:06:58.067Z,16.52
2022-12-04T01:09:28.486Z,15.60
2022-12-04T01:11:55.272Z,16.88
2022-12-04T01:14:22.082Z,16.27
2022-12-04T01:16:49.037Z,16.70
2022-12-04T01:19:15.907Z,14.90
2022-12-04T01:21:42.874Z,14.43
2022-12-04T01:24:09.764Z,15.52
2022-12-04T01:26:36.561Z,15.45
2022-12-04T01:29:04.078Z,14.35
2022-12-04T01:31:31.687Z,14.75
2022-12-04T01:33:58.809Z,15.35
2022-12-04T01:36:27.813Z,14.32
2022-12-04T01:38:55.911Z,15.68
2022-12-04T01:41:26.492Z,14.60
2022-12-04T01:44:20.437Z,14.40
2022-12-04T01:46:51.841Z,12.77
2022-12-04T01:49:25.699Z,14.95
2022-12-04T01:52:16.299Z,14.23
2022-12-04T01:54:47.559Z,12.43
2022-12-04T01:57:23.407Z,14.03
2022-12-04T01:59:58.099Z,16.27
2022-12-04T02:02:39.646Z,14.57
2022-12-04T02:05:09.632Z,16.52
2022-12-04T02:07:39.121Z,16.05
2022-12-04T02:10:08.946Z,15.02
2022-12-04T02:12:54.010Z,16.10
2022-12-04T02:15:34.879Z,16.38
2022-12-04T02:18:29.440Z,15.60
2022-12-04T02:21:13.665Z,17.52
2022-12-04T02:24:12.506Z,15.30
2022-12-04T02:26:51.521Z,16.05
2022-12-04T02:29:21.334Z,17.02
2022-12-04T02:32:20.126Z,17.45
2022-12-04T02:34:57.426Z,16.83
2022-12-04T02:37:31.808Z,17.83
2022-12-04T02:40:34.201Z,18.73
2022-12-04T02:43:12.382Z,17.02
2022-12-04T02:45:45.917Z,18.38
2022-12-04T02:48:18.515Z,21.52
2022-12-04T02:50:50.971Z,21.50
2022-12-04T02:53:26.673Z,18.33
2022-12-04T02:56:01.781Z,19.20
2022-12-04T02:58:54.127Z,21.23
2022-12-04T03:01:27.138Z,21.30
2022-12-04T03:04:07.256Z,18.33
2022-12-04T03:06:38.957Z,20.52
2022-12-04T03:09:17.458Z,19.83
2022-12-04T03:11:52.370Z,18.30
2022-12-04T03:14:29.522Z,18.17
2022-12-04T03:17:02.790Z,18.98
2022-12-04T03:19:38.827Z,16.40
2022-12-04T03:22:11.046Z,16.63
2022-12-04T03:27:20.404Z,16.10
2022-12-04T03:29:53.822Z,16.50
2022-12-04T03:32:33.754Z,16.67
2022-12-04T03:35:06.629Z,16.15
2022-12-04T03:37:45.428Z,16.63
2022-12-04T03:40:37.746Z,18.52
2022-12-04T03:43:16.515Z,18.85
2022-12-04T03:46:09.953Z,18.67
2022-12-04T03:48:36.793Z,14.93
2022-12-04T03:51:16.734Z,15.68
2022-12-04T03:54:08.143Z,16.08
2022-12-04T03:56:44.260Z,15.07
2022-12-04T03:59:21.685Z,16.40
2022-12-04T04:01:50.811Z,15.88
2022-12-04T04:04:30.407Z,14.63
2022-12-04T04:07:04.784Z,14.93
2022-12-04T04:09:35.827Z,15.40
2022-12-04T04:12:15.153Z,14.45
2022-12-04T04:15:03.945Z,15.48
2022-12-04T04:17:53.301Z,14.27
2022-12-04T04:20:43.011Z,14.85
2022-12-04T04:23:31.060Z,15.70
2022-12-04T04:26:01.879Z,16.15
2022-12-04T04:28:40.615Z,14.75
2022-12-04T04:31:10.968Z,16.55
2022-12-04T04:33:47.604Z,14.88
2022-12-04T04:36:49.140Z,14.18
2022-12-04T04:39:41.953Z,15.48
2022-12-04T04:42:17.633Z,13.68
2022-12-04T04:45:16.258Z,15.80
2022-12-04T04:48:08.812Z,14.32
2022-12-04T04:53:16.219Z,15.15
2022-12-04T04:55:43.713Z,15.98
2022-12-04T04:58:17.005Z,14.23
2022-12-04T05:01:11.711Z,15.95
2022-12-04T05:03:39.053Z,14.98
2022-12-04T05:06:06.687Z,16.13
2022-12-04T05:08:34.437Z,15.65
2022-12-04T05:11:01.651Z,14.35
2022-12-04T05:13:30.329Z,15.68
2022-12-04T05:16:07.334Z,14.98
2022-12-04T05:18:35.501Z,15.60
2022-12-04T05:21:09.910Z,16.20
2022-12-04T05:23:36.733Z,14.55
2022-12-04T05:26:05.591Z,14.30
2022-12-04T05:28:32.395Z,15.85
2022-12-04T05:31:02.746Z,14.93
2022-12-04T05:33:30.254Z,15.02
2022-12-04T05:36:11.161Z,15.50
2022-12-04T05:38:38.030Z,14.15
2022-12-04T05:41:06.326Z,15.52
2022-12-04T05:43:33.847Z,15.77
2022-12-04T05:46:05.500Z,14.57
2022-12-04T05:48:33.242Z,14.20
2022-12-04T05:51:00.169Z,12.40
2022-12-04T05:53:26.945Z,14.40
2022-12-04T05:56:02.217Z,14.57
2022-12-04T05:58:29.615Z,14.27
2022-12-04T06:00:56.646Z,14.30
2022-12-04T06:03:23.513Z,14.80
2022-12-04T06:05:50.387Z,13.93
2022-12-04T06:08:17.458Z,13.25
2022-12-04T06:10:44.357Z,13.88
2022-12-04T06:13:11.143Z,14.23
2022-12-04T06:15:39.825Z,13.82
2022-12-04T06:18:07.188Z,13.13
2022-12-04T06:20:34.660Z,15.30
2022-12-04T06:23:01.749Z,12.88
2022-12-04T06:25:28.629Z,13.45
2022-12-04T06:27:55.467Z,14.18
2022-12-04T06:30:23.331Z,13.80
2022-12-04T06:32:50.114Z,15.07
2022-12-04T06:35:16.993Z,15.25
2022-12-04T06:37:43.912Z,15.63
2022-12-04T06:40:11.115Z,13.20
2022-12-04T06:42:37.952Z,14.73
2022-12-04T06:45:05.467Z,15.60
2022-12-04T06:47:33.902Z,15.63
2022-12-04T06:50:00.793Z,15.32
2022-12-04T06:52:27.579Z,14.88
2022-12-04T06:54:54.578Z,15.32
2022-12-04T06:57:21.407Z,13.63
2022-12-04T06:59:48.204Z,13.85
2022-12-04T07:02:15.035Z,14.43
2022-12-04T07:04:41.876Z,13.93
2022-12-04T07:07:10.108Z,14.48
2022-12-04T07:09:37.150Z,15.00
2022-12-04T07:12:04.201Z,14.57
2022-12-04T07:14:31.055Z,14.15
2022-12-04T07:16:58.523Z,14.07
2022-12-04T07:19:25.433Z,15.10
2022-12-04T07:21:52.218Z,14.82
2022-12-04T07:24:19.143Z,15.18
2022-12-04T07:26:46.378Z,14.05
2022-12-04T07:29:13.649Z,14.52
2022-12-04T07:31:40.644Z,14.02
2022-12-04T07:34:07.880Z,17.60
2022-12-04T07:36:34.663Z,15.23
2022-12-04T07:39:01.490Z,15.95
2022-12-04T07:41:28.272Z,15.10
2022-12-04T07:43:55.178Z,14.55
2022-12-04T07:46:24.889Z,15.73
2022-12-04T07:48:51.908Z,13.70
2022-12-04T07:51:21.934Z,15.07
2022-12-04T07:53:49.949Z,15.73
2022-12-04T07:56:17.821Z,15.55
2022-12-04T07:58:44.633Z,13.75
2022-12-04T08:01:13.380Z,14.82
2022-12-04T08:03:47.056Z,16.25
2022-12-04T08:06:15.226Z,15.73
2022-12-04T08:08:42.020Z,15.85
2022-12-04T08:11:14.617Z,16.98
2022-12-04T08:13:41.843Z,18.42
2022-12-04T08:16:10.496Z,18.67
2022-12-04T08:18:37.576Z,17.63
2022-12-04T08:21:07.101Z,16.30
2022-12-04T08:23:34.701Z,18.13
2022-12-04T08:26:02.374Z,17.88
2022-12-04T08:28:29.382Z,17.88
2022-12-04T08:30:56.395Z,15.77
2022-12-04T08:33:23.298Z,18.02
2022-12-04T08:35:50.116Z,17.45
2022-12-04T08:38:16.938Z,17.20
2022-12-04T08:40:43.742Z,17.02
2022-12-04T08:43:10.604Z,18.23
2022-12-04T08:45:37.442Z,18.48
2022-12-04T08:48:04.433Z,17.48
2022-12-04T08:50:31.302Z,19.92
2022-12-04T08:52:58.202Z,19.42
2022-12-04T08:55:25.114Z,16.92
2022-12-04T08:57:53.277Z,17.85
2022-12-04T09:00:20.479Z,16.30
2022-12-04T09:02:49.830Z,18.75
2022-12-04T09:05:17.537Z,21.00
2022-12-04T09:07:44.364Z,17.60
2022-12-04T09:10:12.360Z,17.95
2022-12-04T09:12:39.354Z,18.08
2022-12-04T09:15:07.540Z,20.05
2022-12-04T09:17:36.192Z,19.73
2022-12-04T09:20:04.757Z,18.30
2022-12-04T09:22:57.749Z,18.38
2022-12-04T09:25:20.240Z,21.35
2022-12-04T09:27:47.112Z,20.42
2022-12-04T09:30:14.196Z,21.67
2022-12-04T09:32:40.980Z,18.70
2022-12-04T09:35:08.355Z,18.70
2022-12-04T09:37:36.729Z,17.48
2022-12-04T09:40:07.417Z,19.65
2022-12-04T09:42:49.746Z,19.40
2022-12-04T09:47:52.177Z,16.33
2022-12-04T09:50:26.291Z,16.48
2022-12-04T09:53:02.564Z,15.13
2022-12-04T09:55:38.492Z,16.48
2022-12-04T09:58:10.342Z,16.08
2022-12-04T10:00:41.690Z,15.68
2022-12-04T10:03:15.981Z,16.50
2022-12-04T10:06:06.904Z,14.98
2022-12-04T10:08:43.154Z,16.15
2022-12-04T10:11:34.482Z,16.15
2022-12-04T10:14:26.231Z,15.05
2022-12-04T10:17:21.912Z,18.33
2022-12-04T10:20:07.593Z,18.88
2022-12-04T10:22:49.936Z,16.95
2022-12-04T10:28:21.184Z,14.52
2022-12-04T10:30:50.628Z,15.90
2022-12-04T10:33:41.313Z,15.90
2022-12-04T10:36:15.890Z,16.95
2022-12-04T10:38:49.394Z,16.65
2022-12-04T10:41:59.709Z,16.55
2022-12-04T10:44:26.643Z,17.17
2022-12-04T10:47:03.330Z,19.23
2022-12-04T10:49:32.619Z,17.20
2022-12-04T10:51:59.409Z,18.05
2022-12-04T10:54:48.927Z,16.90
2022-12-04T10:57:16.728Z,17.63
2022-12-04T10:59:55.115Z,17.70
2022-12-04T11:02:31.088Z,17.58
2022-12-04T11:05:04.391Z,17.67
2022-12-04T11:07:34.965Z,17.73
2022-12-04T11:10:19.541Z,16.98
2022-12-04T11:12:57.506Z,21.00
2022-12-04T11:15:24.826Z,18.70
2022-12-04T11:17:55.507Z,19.13
2022-12-04T11:20:29.698Z,18.90
2022-12-04T11:22:59.002Z,19.10
2022-12-04T11:25:27.990Z,18.77
2022-12-04T11:28:01.474Z,18.40
2022-12-04T11:30:38.132Z,19.23
2022-12-04T11:33:14.645Z,19.00
2022-12-04T11:35:41.660Z,20.48
2022-12-04T11:38:16.753Z,18.95
2022-12-04T11:40:48.855Z,19.10
2022-12-04T11:43:17.732Z,20.50
2022-12-04T11:46:02.147Z,19.92
2022-12-04T11:48:41.352Z,18.88
2022-12-04T11:51:25.554Z,18.52
2022-12-04T11:54:09.308Z,17.48
2022-12-04T11:56:41.218Z,20.42
2022-12-04T11:59:55.783Z,20.20
2022-12-04T12:02:34.676Z,18.58
2022-12-04T12:05:20.357Z,19.48
2022-12-04T12:08:05.639Z,21.13
2022-12-04T12:10:59.491Z,24.25
2022-12-04T12:13:32.304Z,27.58
2022-12-04T12:16:23.305Z,21.67
2022-12-04T12:19:04.922Z,19.35
2022-12-04T12:22:09.262Z,20.48
2022-12-04T12:25:03.425Z,20.50
2022-12-04T12:27:57.992Z,19.42
2022-12-04T12:30:28.906Z,20.83
2022-12-04T12:32:58.858Z,20.10
2022-12-04T12:35:25.715Z,18.27
2022-12-04T12:38:02.358Z,21.75
2022-12-04T12:40:34.993Z,20.17
2022-12-04T12:43:19.670Z,23.65
2022-12-04T12:46:01.814Z,30.65
2022-12-04T12:48:58.292Z,35.63
2022-12-04T12:51:37.222Z,34.53
2022-12-04T12:54:39.107Z,30.60
2022-12-04T12:57:18.676Z,23.77
2022-12-04T12:59:54.185Z,24.88
2022-12-04T13:02:30.243Z,21.83
2022-12-04T13:05:10.203Z,22.00
2022-12-04T13:07:43.165Z,20.85
2022-12-04T13:10:28.340Z,23.25
2022-12-04T13:13:06.753Z,20.95
2022-12-04T13:15:45.565Z,20.05
2022-12-04T13:18:29.142Z,20.73
2022-12-04T13:21:00.830Z,19.67
2022-12-04T13:23:46.201Z,20.67
2022-12-04T13:26:47.787Z,19.70
2022-12-04T13:29:32.427Z,18.75
2022-12-04T13:32:31.319Z,20.95
2022-12-04T13:35:08.406Z,20.52
2022-12-04T13:37:56.660Z,21.73
2022-12-04T13:40:26.856Z,27.17
2022-12-04T13:43:04.758Z,22.40
2022-12-04T13:45:33.879Z,22.10
2022-12-04T13:48:03.384Z,26.70
2022-12-04T13:50:35.465Z,26.33
2022-12-04T13:53:02.840Z,28.48
2022-12-04T13:55:36.981Z,24.45
2022-12-04T13:58:27.974Z,20.77
2022-12-04T14:01:06.897Z,18.88
2022-12-04T14:03:49.358Z,22.17
2022-12-04T14:08:57.970Z,22.58
2022-12-04T14:11:26.231Z,18.95
2022-12-04T14:13:56.712Z,20.05
2022-12-04T14:16:40.469Z,21.85
2022-12-04T14:19:08.402Z,20.63
2022-12-04T14:21:47.516Z,25.20
2022-12-04T14:24:38.403Z,23.95
2022-12-04T14:27:42.238Z,22.67
2022-12-04T14:30:18.099Z,22.33
2022-12-04T14:32:50.823Z,26.10
2022-12-04T14:35:21.338Z,21.60
2022-12-04T14:38:06.747Z,26.80
2022-12-04T14:40:45.757Z,25.88
2022-12-04T14:43:38.479Z,30.33
2022-12-04T14:46:30.672Z,29.15
2022-12-04T14:48:57.490Z,22.48
2022-12-04T14:51:43.456Z,28.80
2022-12-04T14:54:36.330Z,30.70
2022-12-04T14:57:15.280Z,24.40
2022-12-04T14:59:46.733Z,20.15
2022-12-04T15:02:34.667Z,19.75
2022-12-04T15:05:02.909Z,18.38
2022-12-04T15:07:31.802Z,20.13
2022-12-04T15:10:20.232Z,18.52
2022-12-04T15:12:52.128Z,21.77
2022-12-04T15:15:28.142Z,19.35
2022-12-04T15:18:15.847Z,18.13
2022-12-04T15:20:48.760Z,16.17
2022-12-04T15:23:41.455Z,18.10
2022-12-04T15:26:12.819Z,17.10
2022-12-04T15:28:48.901Z,16.10
2022-12-04T15:31:47.050Z,16.40
2022-12-04T15:34:17.326Z,15.68
2022-12-04T15:37:07.749Z,16.70
2022-12-04T15:39:38.049Z,17.83
2022-12-04T15:42:24.462Z,18.20
2022-12-04T15:45:03.045Z,16.38
2022-12-04T15:47:36.782Z,18.23
2022-12-04T15:50:15.811Z,16.98
2022-12-04T15:52:50.170Z,16.30
2022-12-04T15:55:18.925Z,15.40
2022-12-04T15:58:14.299Z,16.65
2022-12-04T16:00:42.912Z,16.55
2022-12-04T16:03:26.233Z,15.05
2022-12-04T16:06:26.967Z,14.85
2022-12-04T16:09:12.943Z,14.93
2022-12-04T16:11:41.069Z,17.25
2022-12-04T16:14:13.890Z,16.38
2022-12-04T16:16:43.771Z,16.92
2022-12-04T16:19:22.082Z,13.90
2022-12-04T16:21:49.272Z,15.30
2022-12-04T16:24:16.096Z,15.40
2022-12-04T16:26:42.883Z,14.45
2022-12-04T16:29:09.777Z,14.88
2022-12-04T16:31:38.137Z,15.75
2022-12-04T16:34:05.116Z,14.02
2022-12-04T16:36:32.180Z,13.75
2022-12-04T16:38:58.990Z,13.65
2022-12-04T16:41:25.775Z,14.98
2022-12-04T16:43:56.015Z,14.35
2022-12-04T16:46:25.255Z,13.32
2022-12-04T16:48:52.475Z,14.48
2022-12-04T16:51:27.033Z,16.95
2022-12-04T16:53:54.684Z,14.43
2022-12-04T16:56:22.358Z,15.48
2022-12-04T16:58:49.624Z,18.10
2022-12-04T17:01:21.902Z,15.75
2022-12-04T17:03:49.400Z,13.20
2022-12-04T17:06:16.703Z,14.38
2022-12-04T17:08:44.050Z,13.52
2022-12-04T17:11:15.964Z,13.80
2022-12-04T17:13:43.192Z,14.15
2022-12-04T17:16:14.581Z,12.98
2022-12-04T17:18:42.159Z,13.60
2022-12-04T17:21:11.346Z,12.55
2022-12-04T17:23:38.349Z,13.10
2022-12-04T17:26:07.927Z,12.55
2022-12-04T17:28:36.486Z,12.52
2022-12-04T17:31:06.145Z,12.90
2022-12-04T17:33:33.406Z,12.88
2022-12-04T17:36:00.427Z,45.53
2022-12-04T17:38:28.228Z,17.52
2022-12-04T17:41:02.341Z,22.67
2022-12-04T17:43:30.291Z,27.95
2022-12-04T17:45:57.923Z,14.35
2022-12-04T17:48:25.546Z,17.45
2022-12-04T17:51:08.111Z,15.13
2022-12-04T17:53:35.562Z,13.23
2022-12-04T17:56:08.442Z,33.75
2022-12-04T17:58:36.287Z,15.32
2022-12-04T18:01:06.034Z,16.10
2022-12-04T18:03:33.525Z,18.27
2022-12-04T18:06:01.482Z,14.43
2022-12-04T18:08:29.544Z,18.42
2022-12-04T18:10:57.304Z,13.10
2022-12-04T18:13:24.556Z,14.07
2022-12-04T18:15:51.395Z,19.95
2022-12-04T18:18:18.220Z,15.95
2022-12-04T18:20:45.038Z,20.25
2022-12-04T18:23:11.895Z,19.75
2022-12-04T18:25:38.737Z,17.75
2022-12-04T18:28:05.564Z,17.08
2022-12-04T18:30:34.662Z,16.48
2022-12-04T18:33:01.463Z,16.73
2022-12-04T18:35:28.337Z,22.02
2022-12-04T18:37:55.114Z,19.63
2022-12-04T18:40:21.963Z,34.90
2022-12-04T18:42:48.742Z,15.77
2022-12-04T18:45:15.686Z,17.02
2022-12-04T18:47:42.481Z,25.17
2022-12-04T18:50:09.678Z,16.50
2022-12-04T18:52:38.423Z,11.68
2022-12-04T18:55:05.597Z,12.07
2022-12-04T18:57:32.395Z,16.42
2022-12-04T18:59:59.401Z,12.57
2022-12-04T19:02:26.429Z,11.38
2022-12-04T19:04:53.539Z,11.68
2022-12-04T19:07:20.352Z,12.80
2022-12-04T19:10:10.311Z,11.02
2022-12-04T19:12:33.988Z,11.00
2022-12-04T19:15:00.817Z,13.82
2022-12-04T19:17:27.724Z,12.30
2022-12-04T19:19:54.932Z,16.20
2022-12-04T19:22:22.031Z,12.23
2022-12-04T19:24:48.917Z,10.93
2022-12-04T19:27:15.821Z,11.27
2022-12-04T19:29:43.532Z,12.23
2022-12-04T19:32:11.071Z,13.43
2022-12-04T19:34:38.106Z,15.98
2022-12-04T19:37:05.264Z,11.40
2022-12-04T19:39:32.136Z,13.30
2022-12-04T19:41:58.967Z,13.50
2022-12-04T19:44:48.038Z,12.05
2022-12-04T19:47:12.687Z,18.52
2022-12-04T19:49:39.562Z,13.45
2022-12-04T19:52:06.647Z,18.00
2022-12-04T19:54:33.582Z,12.77
2022-12-04T19:57:01.185Z,11.02
2022-12-04T19:59:33.097Z,9.70
2022-12-04T20:02:03.048Z,10.70
2022-12-04T20:04:29.902Z,11.30
2022-12-04T20:06:56.824Z,11.10
2022-12-04T20:09:25.207Z,10.18
2022-12-04T20:11:52.077Z,10.68
2022-12-04T20:14:19.005Z,11.43
2022-12-04T20:16:46.649Z,10.15
2022-12-04T20:19:15.561Z,11.57
2022-12-04T20:21:43.718Z,10.80
2022-12-04T20:24:13.777Z,11.65
2022-12-04T20:26:42.904Z,11.90
2022-12-04T20:29:13.222Z,11.18
2022-12-04T20:31:42.291Z,14.20
2022-12-04T20:34:13.693Z,10.38
2022-12-04T20:36:42.936Z,12.00
2022-12-04T20:39:11.306Z,10.63
2022-12-04T20:41:39.931Z,12.95
2022-12-04T20:44:09.501Z,11.90
2022-12-04T20:46:39.135Z,11.05
2022-12-04T20:49:08.628Z,12.38
2022-12-04T20:51:38.232Z,11.70
2022-12-04T20:54:06.179Z,11.60
2022-12-04T20:56:35.600Z,11.52
2022-12-04T20:59:05.958Z,10.38
2022-12-04T21:01:33.490Z,11.80
2022-12-04T21:04:01.668Z,11.52
2022-12-04T21:06:35.990Z,10.27
2022-12-04T21:09:10.239Z,13.13
2022-12-04T21:11:42.580Z,9.93
2022-12-04T21:14:38.983Z,23.40
2022-12-04T21:17:07.529Z,14.13
2022-12-04T21:19:34.394Z,18.00
2022-12-04T21:22:01.388Z,11.38
2022-12-04T21:24:30.305Z,15.48
2022-12-04T21:26:57.117Z,12.02
2022-12-04T21:29:24.194Z,13.48
2022-12-04T21:31:51.006Z,13.70
2022-12-04T21:34:18.161Z,15.25
2022-12-04T21:36:46.442Z,14.82
2022-12-04T21:39:14.453Z,13.75
2022-12-04T21:42:00.286Z,13.18
2022-12-04T21:44:27.522Z,13.57
2022-12-04T21:46:54.402Z,12.02
2022-12-04T21:49:21.259Z,11.00
2022-12-04T21:51:57.371Z,12.48
2022-12-04T21:54:25.876Z,13.63
2022-12-04T21:56:52.696Z,16.48
2022-12-04T21:59:19.674Z,11.55
2022-12-04T22:01:46.534Z,11.15
2022-12-04T22:04:13.412Z,12.30
2022-12-04T22:06:40.258Z,11.35
2022-12-04T22:09:09.663Z,11.65
2022-12-04T22:11:37.158Z,10.60
2022-12-04T22:14:04.815Z,11.55
2022-12-04T22:16:34.622Z,11.45
2022-12-04T22:21:31.085Z,9.10
2022-12-04T22:23:59.582Z,11.23
2022-12-04T22:26:27.813Z,11.05
2022-12-04T22:28:55.263Z,10.27
2022-12-04T22:31:24.684Z,11.85
2022-12-04T22:33:53.538Z,11.52
2022-12-04T22:36:23.449Z,10.18
2022-12-04T22:39:09.918Z,10.63
2022-12-04T22:41:37.886Z,10.80
2022-12-04T22:44:05.724Z,10.98
2022-12-04T22:46:32.916Z,11.45
2022-12-04T22:49:00.461Z,10.15
2022-12-04T22:51:27.730Z,13.45
2022-12-04T22:53:57.181Z,12.63
2022-12-04T22:56:25.340Z,11.50
2022-12-04T22:58:53.601Z,11.63
2022-12-04T23:01:29.063Z,11.40
2022-12-04T23:03:56.568Z,11.98
2022-12-04T23:06:26.475Z,11.00
2022-12-04T23:08:58.942Z,10.63
2022-12-04T23:11:27.018Z,9.85
2022-12-04T23:13:56.144Z,10.55
2022-12-04T23:16:24.325Z,9.82
2022-12-04T23:18:51.317Z,10.07
2022-12-04T23:21:19.493Z,9.82
2022-12-04T23:23:47.633Z,10.65
2022-12-04T23:26:17.258Z,9.90
2022-12-04T23:28:44.727Z,10.48
2022-12-04T23:31:12.268Z,11.43
2022-12-04T23:33:40.246Z,10.20
2022-12-04T23:36:09.441Z,11.63
2022-12-04T23:38:37.977Z,11.15
2022-12-04T23:41:15.240Z,11.82
2022-12-04T23:43:42.885Z,12.52
2022-12-04T23:46:11.905Z,12.90
2022-12-04T23:48:43.818Z,11.68
2022-12-04T23:51:12.408Z,11.20
2022-12-04T23:53:39.323Z,11.50
2022-12-04T23:56:15.479Z,12.55
2022-12-04T23:58:43.461Z,11.55
